Pagrindinis puslapis
METAR-TAF:

METAR-TAF

Oro uostai :

Samsunas, Turkija

platuma: 41-15-15N, ilguma: 036-34-03E, Aukštis: 5 m

Dabartinis oras

Ataskaita buvo paskelbta 1 valandą ir 4 minutes, ne 16:50 UTC
Vėjas 5 kt iš Rytų/Šiaurės Rytų
Temperatūra 9°C
Drėgmė 81%
Slėgis 1024 hPa
Matomumas 10 km arba daugiau
Išsisklaidę debesys ne aukštis 3600 ft
Su prošvaistėmis ne aukštis 10000 ft

METAR: LTFH 121650Z 06005KT 9999 SCT036 BKN100 09/06 Q1024 NOSIG

Laikas: 20:54 (17:54 UTC)

Prognozė

Ataskaita buvo paskelbta 1 valandą ir 14 minutes, ne 16:40 UTC
Prognozė galioja nuo 12 metu 18 UTC su 13 metu 03 UTC
Vėjas 2 kt nuo kintamojo kryptimis
Matomumas 10 km arba daugiau
Išsisklaidę debesys ne aukštis 3600 ft
Su prošvaistėmis ne aukštis 10000 ft

TAF: LTFH 121640Z 1218/1303 VRB02KT 9999 SCT036 BKN100

Orai ataskaitas ir orų prognozės (METAR, TAF).

turimą stotys yra geltonos ir raudonos taškus žemėlapyje.

Perkelti pele per norėdami pamatyti stoties vardą.

Tada spustelėkite, norėdami matyti oro stebėjimo ir prognozės.

Norėdami pakeisti žemėlapį: spustelėkite ant žalios mygtukų su juodo kryžiaus žemyn,; žalią mygtuką su brūkšneliu, jei norite nutolinti; arba žalių rodyklių gretimoms žemėlapius.


METAR-TAF: